createdAt,value
2018-05-29T00:00:38.764Z,8.70
2018-05-29T00:01:38.942Z,8.50
2018-05-29T00:02:39.120Z,8.30
2018-05-29T00:03:39.300Z,8.50
2018-05-29T00:04:39.483Z,8.70
2018-05-29T00:05:39.662Z,9.00
2018-05-29T00:06:39.844Z,8.90
2018-05-29T00:07:40.021Z,8.90
2018-05-29T00:08:40.192Z,9.00
2018-05-29T00:09:40.419Z,8.90
2018-05-29T00:10:40.590Z,9.30
2018-05-29T00:11:40.768Z,9.50
2018-05-29T00:12:40.953Z,8.70
2018-05-29T00:13:41.124Z,8.50
2018-05-29T00:14:41.303Z,8.80
2018-05-29T00:15:41.493Z,8.70
2018-05-29T00:16:41.677Z,9.00
2018-05-29T00:17:41.860Z,9.30
2018-05-29T00:18:42.035Z,8.70
2018-05-29T00:19:42.216Z,8.90
2018-05-29T00:20:42.395Z,8.70
2018-05-29T00:21:42.569Z,8.60
2018-05-29T00:22:42.748Z,9.10
2018-05-29T00:23:42.922Z,9.10
2018-05-29T00:24:43.098Z,8.70
2018-05-29T00:25:43.269Z,8.80
2018-05-29T00:26:43.451Z,8.90
2018-05-29T00:27:43.621Z,9.30
2018-05-29T00:28:43.804Z,9.10
2018-05-29T00:29:43.998Z,9.30
2018-05-29T00:30:44.180Z,8.60
2018-05-29T00:31:44.350Z,8.30
2018-05-29T00:32:44.526Z,8.70
2018-05-29T00:33:44.699Z,9.70
2018-05-29T00:34:44.884Z,8.90
2018-05-29T00:35:45.067Z,9.00
2018-05-29T00:36:45.252Z,9.40
2018-05-29T00:37:45.435Z,9.70
2018-05-29T00:38:45.604Z,8.90
2018-05-29T00:39:45.787Z,8.90
2018-05-29T00:40:45.961Z,8.60
2018-05-29T00:41:46.140Z,9.70
2018-05-29T00:42:46.325Z,8.90
2018-05-29T00:43:46.509Z,9.60
2018-05-29T00:44:46.695Z,9.20
2018-05-29T00:45:46.868Z,9.00
2018-05-29T00:46:47.052Z,8.80
2018-05-29T00:47:47.234Z,8.90
2018-05-29T00:48:47.424Z,9.40
2018-05-29T00:49:47.601Z,9.00
2018-05-29T00:50:47.784Z,9.10
2018-05-29T00:51:47.965Z,8.70
2018-05-29T00:52:48.141Z,9.60
2018-05-29T00:53:48.326Z,8.90
2018-05-29T00:54:48.497Z,9.00
2018-05-29T00:55:48.666Z,9.00
2018-05-29T00:56:48.847Z,9.10
2018-05-29T00:57:49.027Z,9.30
2018-05-29T00:58:49.211Z,8.50
2018-05-29T00:59:49.389Z,9.40
2018-05-29T01:00:49.566Z,9.50
2018-05-29T01:01:49.751Z,9.50
2018-05-29T01:02:49.939Z,9.80
2018-05-29T01:03:50.116Z,9.60
2018-05-29T01:04:50.298Z,9.60
2018-05-29T01:05:50.467Z,9.50
2018-05-29T01:06:50.645Z,9.20
2018-05-29T01:07:50.818Z,9.30
2018-05-29T01:08:50.995Z,9.40
2018-05-29T01:09:51.175Z,9.70
2018-05-29T01:10:51.360Z,10.10
2018-05-29T01:11:51.535Z,10.00
2018-05-29T01:12:51.716Z,9.60
2018-05-29T01:13:51.896Z,9.80
2018-05-29T01:14:52.070Z,9.80
2018-05-29T01:15:52.247Z,9.90
2018-05-29T01:16:52.419Z,9.90
2018-05-29T01:17:52.604Z,9.50
2018-05-29T01:18:52.783Z,10.40
2018-05-29T01:19:52.960Z,9.90
2018-05-29T01:20:53.140Z,10.00
2018-05-29T01:21:53.323Z,10.50
2018-05-29T01:22:53.504Z,10.70
2018-05-29T01:23:53.679Z,10.80
2018-05-29T01:24:53.860Z,11.50
2018-05-29T01:25:54.042Z,10.90
2018-05-29T01:26:54.218Z,10.70
2018-05-29T01:27:54.390Z,10.70
2018-05-29T01:28:54.567Z,11.70
2018-05-29T01:29:54.746Z,10.90
2018-05-29T01:30:54.940Z,11.90
2018-05-29T01:31:55.112Z,12.20
2018-05-29T01:32:55.291Z,11.90
2018-05-29T01:33:55.473Z,11.30
2018-05-29T01:34:55.643Z,11.50
2018-05-29T01:35:55.823Z,11.40
2018-05-29T01:36:56.005Z,11.50
2018-05-29T01:37:56.179Z,10.90
2018-05-29T01:38:56.367Z,10.90
2018-05-29T01:39:56.538Z,11.60
2018-05-29T01:40:56.726Z,10.60
2018-05-29T01:41:56.904Z,11.10
2018-05-29T01:42:57.073Z,11.40
2018-05-29T01:43:57.252Z,11.30
2018-05-29T01:44:57.437Z,11.00
2018-05-29T01:45:57.624Z,11.50
2018-05-29T01:46:57.800Z,11.10
2018-05-29T01:47:57.973Z,10.50
2018-05-29T01:48:58.144Z,10.90
2018-05-29T01:49:58.328Z,11.50
2018-05-29T01:50:58.502Z,11.70
2018-05-29T01:51:58.672Z,11.80
2018-05-29T01:52:58.859Z,11.60
2018-05-29T01:53:59.028Z,12.00
2018-05-29T01:54:59.213Z,12.20
2018-05-29T01:55:59.392Z,11.90
2018-05-29T01:56:59.578Z,12.40
2018-05-29T01:57:59.760Z,12.30
2018-05-29T01:58:59.992Z,12.30
2018-05-29T02:00:00.135Z,12.60
2018-05-29T02:01:00.326Z,12.40
2018-05-29T02:02:00.505Z,12.60
2018-05-29T02:03:00.684Z,11.90
2018-05-29T02:04:00.866Z,12.10
2018-05-29T02:05:01.036Z,12.30
2018-05-29T02:06:01.218Z,11.80
2018-05-29T02:07:01.393Z,12.40
2018-05-29T02:08:01.562Z,12.80
2018-05-29T02:09:01.745Z,12.50
2018-05-29T02:10:01.939Z,12.10
2018-05-29T02:11:02.115Z,11.90
2018-05-29T02:12:02.284Z,11.70
2018-05-29T02:13:02.469Z,11.30
2018-05-29T02:14:02.645Z,12.20
2018-05-29T02:15:02.828Z,12.50
2018-05-29T02:16:03.004Z,11.60
2018-05-29T02:17:03.174Z,11.20
2018-05-29T02:18:03.349Z,12.10
2018-05-29T02:19:03.526Z,11.30
2018-05-29T02:20:03.699Z,11.50
2018-05-29T02:21:03.882Z,11.80
2018-05-29T02:22:04.058Z,11.90
2018-05-29T02:23:04.232Z,11.70
2018-05-29T02:24:04.410Z,12.20
2018-05-29T02:25:04.589Z,11.70
2018-05-29T02:26:04.762Z,12.30
2018-05-29T02:27:04.950Z,13.00
2018-05-29T02:28:05.123Z,12.30
2018-05-29T02:29:05.304Z,11.70
2018-05-29T02:30:05.477Z,12.20
2018-05-29T02:31:05.657Z,11.90
2018-05-29T02:32:05.832Z,11.90
2018-05-29T02:33:06.010Z,12.00
2018-05-29T02:34:06.192Z,11.80
2018-05-29T02:35:06.376Z,11.90
2018-05-29T02:36:06.567Z,12.00
2018-05-29T02:37:06.753Z,12.00
2018-05-29T02:38:06.930Z,12.00
2018-05-29T02:39:07.109Z,12.10
2018-05-29T02:40:07.291Z,11.90
2018-05-29T02:41:07.950Z,12.00
2018-05-29T02:42:07.671Z,11.70
2018-05-29T02:43:07.850Z,12.10
2018-05-29T02:44:08.030Z,12.30
2018-05-29T02:45:08.204Z,11.40
2018-05-29T02:46:08.382Z,11.80
2018-05-29T02:47:08.563Z,11.50
2018-05-29T02:48:08.738Z,11.80
2018-05-29T02:49:08.923Z,11.40
2018-05-29T02:50:09.089Z,12.00
2018-05-29T02:51:09.272Z,11.50
2018-05-29T02:52:09.444Z,11.70
2018-05-29T02:53:09.618Z,12.10
2018-05-29T02:54:09.801Z,12.50
2018-05-29T02:55:09.983Z,12.40
2018-05-29T02:56:10.157Z,12.30
2018-05-29T02:57:10.333Z,12.50
2018-05-29T02:58:10.510Z,12.60
2018-05-29T02:59:10.703Z,12.10
2018-05-29T03:00:10.869Z,12.50
2018-05-29T03:01:11.046Z,12.40
2018-05-29T03:02:11.214Z,12.90
2018-05-29T03:03:11.394Z,12.00
2018-05-29T03:04:11.571Z,12.60
2018-05-29T03:05:11.748Z,12.40
2018-05-29T03:06:11.936Z,12.30
2018-05-29T03:07:12.105Z,11.60
2018-05-29T03:08:12.276Z,12.60
2018-05-29T03:09:12.450Z,12.70
2018-05-29T03:10:12.628Z,12.20
2018-05-29T03:11:12.809Z,12.50
2018-05-29T03:12:12.983Z,12.20
2018-05-29T03:13:13.168Z,12.40
2018-05-29T03:14:13.343Z,13.20
2018-05-29T03:15:13.519Z,13.10
2018-05-29T03:16:13.699Z,13.10
2018-05-29T03:17:13.885Z,13.30
2018-05-29T03:18:14.056Z,12.60
2018-05-29T03:19:14.231Z,13.00
2018-05-29T03:20:14.412Z,13.00
2018-05-29T03:21:14.583Z,12.60
2018-05-29T03:22:14.765Z,11.80
2018-05-29T03:23:14.938Z,12.70
2018-05-29T03:24:15.107Z,12.50
2018-05-29T03:25:15.288Z,12.70
2018-05-29T03:26:15.461Z,12.10
2018-05-29T03:27:15.642Z,12.10
2018-05-29T03:28:15.828Z,11.70
2018-05-29T03:29:16.004Z,12.10
2018-05-29T03:30:16.356Z,11.70
2018-05-29T03:31:16.623Z,11.40
2018-05-29T03:32:17.149Z,12.00
2018-05-29T03:33:20.774Z,11.50
2018-05-29T03:34:16.869Z,11.40
2018-05-29T03:35:17.039Z,11.70
2018-05-29T03:36:17.217Z,11.90
2018-05-29T03:37:17.398Z,11.90
2018-05-29T03:38:17.585Z,12.00
2018-05-29T03:39:17.766Z,12.20
2018-05-29T03:40:17.940Z,12.60
2018-05-29T03:41:18.121Z,11.60
2018-05-29T03:42:18.329Z,12.20
2018-05-29T03:43:18.487Z,12.40
2018-05-29T03:44:18.680Z,13.30
2018-05-29T03:45:18.856Z,12.60
2018-05-29T03:46:19.033Z,13.20
2018-05-29T03:47:19.206Z,12.60
2018-05-29T03:48:19.381Z,12.50
2018-05-29T03:49:19.560Z,12.30
2018-05-29T03:50:19.737Z,12.30
2018-05-29T03:51:19.955Z,13.10
2018-05-29T03:52:20.088Z,11.80
2018-05-29T03:53:20.269Z,11.90
2018-05-29T03:54:20.467Z,11.70
2018-05-29T03:55:20.643Z,11.90
2018-05-29T03:56:20.831Z,12.30
2018-05-29T03:57:21.009Z,11.90
2018-05-29T03:58:21.184Z,12.10
2018-05-29T03:59:21.358Z,11.90
2018-05-29T04:00:21.527Z,12.40
2018-05-29T04:01:27.885Z,12.20
2018-05-29T04:02:23.401Z,11.90
2018-05-29T04:03:26.275Z,12.30
2018-05-29T04:04:26.666Z,12.30
2018-05-29T04:05:22.415Z,11.70
2018-05-29T04:06:22.588Z,11.80
2018-05-29T04:07:22.761Z,11.60
2018-05-29T04:08:22.944Z,11.50
2018-05-29T04:09:23.145Z,11.20
2018-05-29T04:10:23.310Z,11.90
2018-05-29T04:11:23.487Z,11.60
2018-05-29T04:12:23.673Z,11.70
2018-05-29T04:13:23.848Z,12.20
2018-05-29T04:14:24.023Z,11.90
2018-05-29T04:15:24.212Z,13.10
2018-05-29T04:16:24.392Z,12.30
2018-05-29T04:17:24.571Z,12.80
2018-05-29T04:18:24.749Z,12.50
2018-05-29T04:19:24.933Z,12.60
2018-05-29T04:20:25.111Z,12.50
2018-05-29T04:21:25.317Z,12.70
2018-05-29T04:22:25.482Z,12.50
2018-05-29T04:23:25.668Z,12.60
2018-05-29T04:24:25.850Z,12.50
2018-05-29T04:25:26.032Z,12.20
2018-05-29T04:26:26.219Z,12.50
2018-05-29T04:27:26.410Z,12.60
2018-05-29T04:28:26.659Z,12.50
2018-05-29T04:29:26.768Z,12.80
2018-05-29T04:30:26.951Z,12.40
2018-05-29T04:31:27.135Z,12.20
2018-05-29T04:32:27.347Z,12.60
2018-05-29T04:33:27.546Z,12.90
2018-05-29T04:34:27.739Z,12.80
2018-05-29T04:35:27.921Z,12.90
2018-05-29T04:36:28.118Z,12.30
2018-05-29T04:37:28.299Z,12.90
2018-05-29T04:38:28.477Z,12.30
2018-05-29T04:39:28.865Z,12.70
2018-05-29T04:40:28.771Z,13.20
2018-05-29T04:41:30.445Z,13.00
2018-05-29T04:42:31.964Z,12.20
2018-05-29T04:43:30.640Z,12.80
2018-05-29T04:44:32.360Z,12.70
2018-05-29T04:45:31.351Z,12.60
2018-05-29T04:46:32.585Z,12.50
2018-05-29T04:47:31.924Z,13.20
2018-05-29T04:48:31.268Z,13.10
2018-05-29T04:49:32.113Z,13.30
2018-05-29T04:50:30.551Z,12.80
2018-05-29T04:51:31.433Z,12.50
2018-05-29T04:52:32.441Z,13.20
2018-05-29T04:53:34.108Z,13.00
2018-05-29T04:54:34.955Z,12.70
2018-05-29T04:55:33.577Z,12.50
2018-05-29T04:56:35.543Z,12.90
2018-05-29T04:57:32.673Z,12.10
2018-05-29T04:58:33.891Z,13.00
2018-05-29T04:59:31.872Z,11.90
2018-05-29T05:00:32.062Z,12.50
2018-05-29T05:01:32.238Z,12.80
2018-05-29T05:02:32.424Z,12.60
2018-05-29T05:03:32.598Z,12.30
2018-05-29T05:04:32.768Z,12.40
2018-05-29T05:05:32.952Z,12.20
2018-05-29T05:06:33.129Z,12.20
2018-05-29T05:07:33.311Z,12.30
2018-05-29T05:08:33.503Z,11.70
2018-05-29T05:09:33.681Z,12.30
2018-05-29T05:10:33.876Z,12.30
2018-05-29T05:11:34.049Z,12.20
2018-05-29T05:12:34.240Z,12.00
2018-05-29T05:13:34.429Z,12.20
2018-05-29T05:14:34.612Z,12.10
2018-05-29T05:15:34.800Z,11.60
2018-05-29T05:16:34.977Z,12.20
2018-05-29T05:17:35.156Z,11.50
2018-05-29T05:18:35.345Z,12.00
2018-05-29T05:19:35.523Z,12.00
2018-05-29T05:20:35.706Z,11.80
2018-05-29T05:21:35.882Z,12.00
2018-05-29T05:22:36.091Z,11.20
2018-05-29T05:23:36.328Z,11.00
2018-05-29T05:24:36.458Z,11.60
2018-05-29T05:25:36.643Z,11.50
2018-05-29T05:26:41.157Z,11.20
2018-05-29T05:27:38.964Z,11.50
2018-05-29T05:28:37.182Z,10.90
2018-05-29T05:29:37.356Z,11.30
2018-05-29T05:30:37.541Z,11.20
2018-05-29T05:31:37.720Z,11.90
2018-05-29T05:32:37.895Z,11.70
2018-05-29T05:33:38.073Z,11.40
2018-05-29T05:34:38.260Z,11.10
2018-05-29T05:35:38.460Z,11.20
2018-05-29T05:36:38.636Z,10.70
2018-05-29T05:37:38.826Z,10.80
2018-05-29T05:38:39.000Z,10.80
2018-05-29T05:39:39.181Z,10.70
2018-05-29T05:40:39.368Z,10.90
2018-05-29T05:41:39.547Z,10.80
2018-05-29T05:42:39.734Z,10.90
2018-05-29T05:43:39.909Z,10.50
2018-05-29T05:44:40.085Z,10.30
2018-05-29T05:45:40.266Z,10.40
2018-05-29T05:46:40.437Z,10.50
2018-05-29T05:47:40.618Z,10.50
2018-05-29T05:48:41.325Z,9.60
2018-05-29T05:49:43.510Z,10.20
2018-05-29T05:50:44.368Z,9.80
2018-05-29T05:51:41.236Z,9.60
2018-05-29T05:52:41.420Z,8.80
2018-05-29T05:53:41.590Z,8.90
2018-05-29T05:54:41.765Z,9.20
2018-05-29T05:55:41.948Z,8.70
2018-05-29T05:56:42.129Z,9.30
2018-05-29T05:57:42.305Z,9.00
2018-05-29T05:58:42.492Z,8.20
2018-05-29T05:59:42.669Z,8.10
2018-05-29T06:00:42.851Z,8.10
2018-05-29T06:01:43.037Z,8.30
2018-05-29T06:02:43.218Z,8.10
2018-05-29T06:03:43.397Z,8.20
2018-05-29T06:04:43.580Z,8.10
2018-05-29T06:05:43.759Z,8.20
2018-05-29T06:06:44.009Z,8.80
2018-05-29T06:07:44.064Z,8.70
2018-05-29T06:08:44.243Z,8.20
2018-05-29T06:09:44.422Z,8.10
2018-05-29T06:10:44.601Z,7.90
2018-05-29T06:11:44.779Z,8.50
2018-05-29T06:12:44.961Z,8.50
2018-05-29T06:13:45.151Z,8.20
2018-05-29T06:14:45.342Z,8.40
2018-05-29T06:15:45.531Z,7.80
2018-05-29T06:16:45.718Z,7.80
2018-05-29T06:17:45.901Z,8.20
2018-05-29T06:18:46.084Z,7.80
2018-05-29T06:19:46.270Z,7.50
2018-05-29T06:20:46.467Z,7.50
2018-05-29T06:21:46.661Z,7.50
2018-05-29T06:22:46.837Z,7.70
2018-05-29T06:23:47.030Z,7.50
2018-05-29T06:24:47.211Z,7.40
2018-05-29T06:25:47.406Z,7.00
2018-05-29T06:26:47.587Z,6.90
2018-05-29T06:27:47.774Z,6.60
2018-05-29T06:28:47.961Z,6.60
2018-05-29T06:29:48.156Z,6.90
2018-05-29T06:30:48.355Z,7.00
2018-05-29T06:31:48.544Z,6.30
2018-05-29T06:32:48.770Z,6.40
2018-05-29T06:33:48.922Z,7.30
2018-05-29T06:34:49.118Z,6.80
2018-05-29T06:35:49.308Z,7.00
2018-05-29T06:36:49.497Z,7.00
2018-05-29T06:37:49.687Z,6.70
2018-05-29T06:38:49.889Z,6.70
2018-05-29T06:39:50.075Z,6.30
2018-05-29T06:40:50.271Z,6.40
2018-05-29T06:41:50.457Z,6.50
2018-05-29T06:42:50.648Z,6.30
2018-05-29T06:43:50.840Z,6.70
2018-05-29T06:44:51.081Z,6.40
2018-05-29T06:45:51.262Z,6.40
2018-05-29T06:46:51.446Z,6.60
2018-05-29T06:47:51.635Z,6.60
2018-05-29T06:48:51.838Z,6.30
2018-05-29T06:49:52.015Z,6.30
2018-05-29T06:50:52.194Z,6.10
2018-05-29T06:51:52.387Z,6.40
2018-05-29T06:52:52.573Z,6.30
2018-05-29T06:53:52.772Z,6.20
2018-05-29T06:54:52.972Z,6.30
2018-05-29T06:55:53.167Z,6.50
2018-05-29T06:56:53.350Z,6.30
2018-05-29T06:57:53.542Z,6.50
2018-05-29T06:58:53.761Z,6.50
2018-05-29T06:59:53.956Z,6.20
2018-05-29T07:00:54.151Z,6.00
2018-05-29T07:01:54.355Z,6.10
2018-05-29T07:02:54.547Z,5.40
2018-05-29T07:03:54.946Z,5.90
2018-05-29T07:04:54.947Z,6.00
2018-05-29T07:05:55.139Z,6.30
2018-05-29T07:06:55.329Z,6.00
2018-05-29T07:07:55.516Z,5.80
2018-05-29T07:08:55.706Z,5.40
2018-05-29T07:09:55.912Z,5.70
2018-05-29T07:10:56.101Z,5.60
2018-05-29T07:11:56.298Z,5.80
2018-05-29T07:12:56.559Z,6.20
2018-05-29T07:13:56.728Z,5.40
2018-05-29T07:14:56.913Z,5.50
2018-05-29T07:15:57.106Z,5.50
2018-05-29T07:16:57.301Z,5.70
2018-05-29T07:17:57.488Z,5.50
2018-05-29T07:18:57.679Z,5.50
2018-05-29T07:19:57.882Z,5.80
2018-05-29T07:20:58.066Z,5.80
2018-05-29T07:21:58.259Z,5.70
2018-05-29T07:22:58.631Z,5.50
2018-05-29T07:23:58.606Z,5.80
2018-05-29T07:24:58.936Z,5.40
2018-05-29T07:25:59.015Z,5.20
2018-05-29T07:26:59.263Z,5.40
2018-05-29T07:27:59.343Z,6.00
2018-05-29T07:28:59.537Z,5.70
2018-05-29T07:29:59.729Z,5.90
2018-05-29T07:30:59.920Z,5.70
2018-05-29T07:32:00.121Z,5.30
2018-05-29T07:33:00.319Z,5.80
2018-05-29T07:34:00.519Z,5.80
2018-05-29T07:35:00.718Z,5.60
2018-05-29T07:36:00.929Z,6.00
2018-05-29T07:37:01.427Z,5.50
2018-05-29T07:38:01.348Z,5.50
2018-05-29T07:39:02.471Z,5.70
2018-05-29T07:40:01.720Z,5.70
2018-05-29T07:41:01.908Z,5.40
2018-05-29T07:42:02.211Z,5.80
2018-05-29T07:43:02.723Z,5.70
2018-05-29T07:44:02.421Z,5.00
2018-05-29T07:45:04.454Z,5.70
2018-05-29T07:46:02.807Z,5.60
2018-05-29T07:47:02.997Z,5.70
2018-05-29T07:48:03.198Z,5.30
2018-05-29T07:49:05.148Z,5.70
2018-05-29T07:50:04.130Z,5.80
2018-05-29T07:51:03.753Z,6.00
2018-05-29T07:52:04.018Z,6.10
2018-05-29T07:53:04.158Z,6.00
2018-05-29T07:54:04.361Z,5.30
2018-05-29T07:55:04.871Z,5.40
2018-05-29T07:56:05.406Z,5.80
2018-05-29T07:57:06.421Z,5.50
2018-05-29T07:58:05.010Z,5.80
2018-05-29T07:59:05.203Z,5.50
2018-05-29T08:00:05.403Z,6.10
2018-05-29T08:01:05.599Z,5.80
2018-05-29T08:02:05.843Z,6.10
2018-05-29T08:03:05.915Z,6.10
2018-05-29T08:04:06.108Z,5.60
2018-05-29T08:05:06.319Z,5.60
2018-05-29T08:06:06.508Z,5.70
2018-05-29T08:07:06.708Z,5.70
2018-05-29T08:08:06.898Z,5.50
2018-05-29T08:09:07.085Z,5.70
2018-05-29T08:10:07.290Z,5.80
2018-05-29T08:11:07.489Z,5.70
2018-05-29T08:12:07.672Z,6.00
2018-05-29T08:13:07.874Z,5.80
2018-05-29T08:14:08.072Z,5.90
2018-05-29T08:15:08.263Z,5.60
2018-05-29T08:16:08.457Z,6.00
2018-05-29T08:17:08.650Z,5.70
2018-05-29T08:18:08.851Z,5.90
2018-05-29T08:19:09.041Z,5.70
2018-05-29T08:20:09.225Z,5.90
2018-05-29T08:21:09.426Z,5.40
2018-05-29T08:22:09.619Z,5.90
2018-05-29T08:23:09.828Z,5.50
2018-05-29T08:24:10.017Z,5.80
2018-05-29T08:25:10.218Z,5.90
2018-05-29T08:26:10.415Z,6.00
2018-05-29T08:27:10.616Z,5.60
2018-05-29T08:28:10.861Z,5.70
2018-05-29T08:29:11.008Z,5.80
2018-05-29T08:30:11.201Z,5.90
2018-05-29T08:31:11.395Z,6.00
2018-05-29T08:32:11.591Z,5.90
2018-05-29T08:33:11.782Z,5.40
2018-05-29T08:34:11.980Z,5.90
2018-05-29T08:35:12.181Z,6.00
2018-05-29T08:36:12.377Z,5.40
2018-05-29T08:37:12.574Z,5.70
2018-05-29T08:38:12.769Z,5.80
2018-05-29T08:39:12.975Z,6.00
2018-05-29T08:40:13.176Z,7.00
2018-05-29T08:41:13.364Z,5.70
2018-05-29T08:42:13.574Z,6.10
2018-05-29T08:43:13.762Z,6.80
2018-05-29T08:44:13.976Z,6.80
2018-05-29T08:45:14.177Z,6.10
2018-05-29T08:46:14.376Z,6.40
2018-05-29T08:47:14.584Z,5.70
2018-05-29T08:48:14.781Z,5.60
2018-05-29T08:49:14.974Z,5.40
2018-05-29T08:50:15.171Z,6.10
2018-05-29T08:51:15.373Z,5.70
2018-05-29T08:52:15.568Z,5.80
2018-05-29T08:53:15.758Z,5.80
2018-05-29T08:54:15.961Z,6.40
2018-05-29T08:55:16.155Z,5.80
2018-05-29T08:56:16.345Z,6.50
2018-05-29T08:57:16.612Z,6.70
2018-05-29T08:58:16.764Z,6.10
2018-05-29T08:59:16.957Z,6.20
2018-05-29T09:00:17.150Z,6.50
2018-05-29T09:01:17.346Z,6.30
2018-05-29T09:02:17.534Z,6.10
2018-05-29T09:03:17.760Z,6.30
2018-05-29T09:04:17.957Z,5.70
2018-05-29T09:05:18.138Z,6.30
2018-05-29T09:06:18.348Z,6.50
2018-05-29T09:07:18.528Z,5.90
2018-05-29T09:08:18.726Z,6.20
2018-05-29T09:09:18.923Z,6.20
2018-05-29T09:10:19.112Z,6.40
2018-05-29T09:11:19.309Z,6.10
2018-05-29T09:12:19.496Z,6.00
2018-05-29T09:13:19.695Z,6.00
2018-05-29T09:14:19.892Z,5.80
2018-05-29T09:15:20.155Z,6.70
2018-05-29T09:16:20.373Z,6.10
2018-05-29T09:17:20.509Z,6.20
2018-05-29T09:18:21.016Z,6.00
2018-05-29T09:19:20.837Z,5.90
2018-05-29T09:20:22.598Z,5.60
2018-05-29T09:21:23.017Z,6.00
2018-05-29T09:22:21.345Z,6.20
2018-05-29T09:23:21.540Z,6.20
2018-05-29T09:24:21.733Z,5.70
2018-05-29T09:25:21.934Z,5.90
2018-05-29T09:26:22.135Z,6.10
2018-05-29T09:27:22.321Z,5.90
2018-05-29T09:28:22.561Z,6.30
2018-05-29T09:29:22.715Z,6.00
2018-05-29T09:30:23.078Z,6.10
2018-05-29T09:31:23.126Z,6.20
2018-05-29T09:32:23.451Z,6.20
2018-05-29T09:33:23.479Z,6.00
2018-05-29T09:34:23.672Z,6.40
2018-05-29T09:35:23.923Z,6.00
2018-05-29T09:36:24.075Z,5.90
2018-05-29T09:37:24.323Z,6.10
2018-05-29T09:38:24.478Z,6.20
2018-05-29T09:39:24.677Z,6.70
2018-05-29T09:40:24.869Z,5.80
2018-05-29T09:41:25.068Z,6.20
2018-05-29T09:42:27.057Z,5.80
2018-05-29T09:43:26.839Z,6.00
2018-05-29T09:44:25.621Z,6.00
2018-05-29T09:45:26.062Z,5.90
2018-05-29T09:46:26.734Z,5.80
2018-05-29T09:47:26.225Z,6.20
2018-05-29T09:48:26.490Z,5.20
2018-05-29T09:49:27.074Z,5.60
2018-05-29T09:50:26.729Z,5.50
2018-05-29T09:51:26.922Z,5.80
2018-05-29T09:52:27.215Z,5.60
2018-05-29T09:53:27.252Z,6.20
2018-05-29T09:54:27.449Z,6.60
2018-05-29T09:55:27.658Z,6.20
2018-05-29T09:56:32.900Z,6.40
2018-05-29T09:57:28.273Z,5.70
2018-05-29T09:58:28.273Z,5.60
2018-05-29T09:59:28.476Z,5.80
2018-05-29T10:00:28.685Z,6.00
2018-05-29T10:01:28.878Z,5.80
2018-05-29T10:02:29.111Z,5.80
2018-05-29T10:03:29.310Z,5.90
2018-05-29T10:04:29.519Z,6.10
2018-05-29T10:05:29.708Z,5.90
2018-05-29T10:06:29.923Z,5.60
2018-05-29T10:07:30.109Z,5.70
2018-05-29T10:08:30.297Z,6.00
2018-05-29T10:09:30.484Z,6.00
2018-05-29T10:10:30.673Z,6.10
2018-05-29T10:11:30.865Z,6.50
2018-05-29T10:12:31.079Z,6.30
2018-05-29T10:13:31.274Z,6.70
2018-05-29T10:14:31.465Z,6.80
2018-05-29T10:15:31.668Z,7.40
2018-05-29T10:16:31.863Z,7.30
2018-05-29T10:17:32.050Z,6.90
2018-05-29T10:18:32.239Z,6.80
2018-05-29T10:19:32.440Z,6.80
2018-05-29T10:20:32.631Z,7.40
2018-05-29T10:21:32.820Z,6.70
2018-05-29T10:22:33.008Z,7.10
2018-05-29T10:23:33.203Z,6.50
2018-05-29T10:24:33.399Z,6.50
2018-05-29T10:25:33.592Z,6.90
2018-05-29T10:26:33.782Z,6.30
2018-05-29T10:27:33.974Z,6.30
2018-05-29T10:28:34.161Z,6.50
2018-05-29T10:29:34.349Z,6.70
2018-05-29T10:30:34.544Z,6.40
2018-05-29T10:31:34.735Z,7.00
2018-05-29T10:32:34.922Z,7.10
2018-05-29T10:33:35.121Z,7.50
2018-05-29T10:34:35.308Z,7.20
2018-05-29T10:35:35.509Z,7.50
2018-05-29T10:36:35.690Z,7.40
2018-05-29T10:37:35.878Z,7.50
2018-05-29T10:38:36.077Z,7.00
2018-05-29T10:39:36.264Z,7.30
2018-05-29T10:40:36.673Z,7.60
2018-05-29T10:41:36.575Z,8.20
2018-05-29T10:42:36.761Z,7.90
2018-05-29T10:43:36.963Z,8.40
2018-05-29T10:44:37.135Z,8.20
2018-05-29T10:45:37.325Z,8.50
2018-05-29T10:46:37.520Z,8.50
2018-05-29T10:47:37.708Z,7.60
2018-05-29T10:48:37.895Z,7.30
2018-05-29T10:49:38.085Z,6.40
2018-05-29T10:50:38.284Z,6.50
2018-05-29T10:51:38.534Z,6.30
2018-05-29T10:52:38.656Z,6.30
2018-05-29T10:53:38.839Z,6.80
2018-05-29T10:54:39.024Z,6.20
2018-05-29T10:55:39.212Z,6.40
2018-05-29T10:56:39.400Z,6.20
2018-05-29T10:57:39.591Z,6.00
2018-05-29T10:58:39.802Z,5.90
2018-05-29T10:59:40.005Z,6.30
2018-05-29T11:00:40.204Z,6.90
2018-05-29T11:01:40.393Z,6.60
2018-05-29T11:02:40.582Z,7.50
2018-05-29T11:03:40.764Z,7.10
2018-05-29T11:04:40.962Z,7.30
2018-05-29T11:05:41.139Z,7.60
2018-05-29T11:06:41.326Z,7.70
2018-05-29T11:07:41.514Z,7.70
2018-05-29T11:08:42.698Z,7.10
2018-05-29T11:09:41.888Z,7.50
2018-05-29T11:10:43.404Z,6.90
2018-05-29T11:11:42.449Z,7.00
2018-05-29T11:12:42.734Z,7.10
2018-05-29T11:13:42.837Z,7.20
2018-05-29T11:14:42.770Z,7.00
2018-05-29T11:15:43.322Z,7.30
2018-05-29T11:16:43.514Z,6.70
2018-05-29T11:17:44.889Z,7.20
2018-05-29T11:18:43.466Z,6.50
2018-05-29T11:19:43.898Z,7.10
2018-05-29T11:20:43.841Z,7.20
2018-05-29T11:21:44.172Z,7.10
2018-05-29T11:22:44.289Z,7.30
2018-05-29T11:23:44.680Z,7.40
2018-05-29T11:24:44.859Z,6.90
2018-05-29T11:25:44.691Z,7.30
2018-05-29T11:26:44.886Z,6.60
2018-05-29T11:27:45.072Z,7.60
2018-05-29T11:28:45.257Z,7.40
2018-05-29T11:29:45.450Z,7.00
2018-05-29T11:30:45.640Z,7.10
2018-05-29T11:31:45.834Z,7.00
2018-05-29T11:32:46.027Z,7.70
2018-05-29T11:33:46.211Z,7.50
2018-05-29T11:34:46.395Z,6.80
2018-05-29T11:35:46.596Z,7.60
2018-05-29T11:36:46.792Z,7.40
2018-05-29T11:37:47.399Z,7.80
2018-05-29T11:38:47.120Z,7.40
2018-05-29T11:39:47.303Z,7.60
2018-05-29T11:40:47.501Z,8.20
2018-05-29T11:41:47.698Z,7.50
2018-05-29T11:42:47.890Z,8.10
2018-05-29T11:43:48.104Z,8.00
2018-05-29T11:44:51.309Z,7.90
2018-05-29T11:45:48.520Z,7.80
2018-05-29T11:46:48.609Z,8.00
2018-05-29T11:47:48.766Z,7.90
2018-05-29T11:48:49.065Z,8.20
2018-05-29T11:49:49.200Z,8.00
2018-05-29T11:50:49.311Z,8.30
2018-05-29T11:51:49.413Z,8.60
2018-05-29T11:52:49.703Z,8.30
2018-05-29T11:53:49.746Z,8.50
2018-05-29T11:54:50.032Z,7.80
2018-05-29T11:55:50.439Z,7.90
2018-05-29T11:56:50.309Z,8.30
2018-05-29T11:57:50.573Z,8.10
2018-05-29T11:58:50.647Z,8.40
2018-05-29T11:59:52.247Z,8.80
2018-05-29T12:00:50.966Z,8.30
2018-05-29T12:01:51.212Z,8.70
2018-05-29T12:02:51.374Z,8.70
2018-05-29T12:03:51.539Z,8.30
2018-05-29T12:04:52.108Z,8.50
2018-05-29T12:05:51.921Z,8.70
2018-05-29T12:06:52.106Z,8.70
2018-05-29T12:07:52.306Z,8.30
2018-05-29T12:08:52.487Z,7.90
2018-05-29T12:09:52.682Z,8.00
2018-05-29T12:10:52.864Z,8.00
2018-05-29T12:11:53.391Z,8.00
2018-05-29T12:12:53.235Z,7.40
2018-05-29T12:13:53.537Z,7.90
2018-05-29T12:14:53.599Z,7.70
2018-05-29T12:15:53.784Z,8.10
2018-05-29T12:16:53.990Z,7.90
2018-05-29T12:17:54.159Z,8.00
2018-05-29T12:18:54.350Z,8.00
2018-05-29T12:19:54.535Z,7.80
2018-05-29T12:20:54.730Z,8.70
2018-05-29T12:21:54.933Z,7.50
2018-05-29T12:22:55.126Z,7.30
2018-05-29T12:23:55.339Z,7.20
2018-05-29T12:24:55.524Z,7.10
2018-05-29T12:25:55.723Z,7.30
2018-05-29T12:26:55.915Z,7.40
2018-05-29T12:27:56.107Z,7.20
2018-05-29T12:28:56.296Z,7.20
2018-05-29T12:29:56.487Z,7.50
2018-05-29T12:30:56.708Z,7.60
2018-05-29T12:31:56.882Z,7.90
2018-05-29T12:32:57.092Z,7.10
2018-05-29T12:33:57.293Z,7.70
2018-05-29T12:34:57.472Z,7.40
2018-05-29T12:35:57.660Z,7.60
2018-05-29T12:36:57.852Z,7.00
2018-05-29T12:37:58.040Z,8.10
2018-05-29T12:38:58.234Z,7.90
2018-05-29T12:39:58.424Z,7.80
2018-05-29T12:40:58.619Z,8.20
2018-05-29T12:41:58.813Z,7.80
2018-05-29T12:42:59.007Z,7.60
2018-05-29T12:43:59.213Z,7.80
2018-05-29T12:44:59.592Z,7.70
2018-05-29T12:45:59.590Z,7.70
2018-05-29T12:46:59.783Z,8.00
2018-05-29T12:47:59.966Z,7.70
2018-05-29T12:49:00.153Z,8.20
2018-05-29T12:50:00.334Z,7.80
2018-05-29T12:51:00.555Z,8.80
2018-05-29T12:52:00.708Z,8.90
2018-05-29T12:53:00.893Z,10.00
2018-05-29T12:54:01.074Z,9.90
2018-05-29T12:55:01.260Z,10.60
2018-05-29T12:56:01.447Z,11.20
2018-05-29T12:57:01.630Z,11.50
2018-05-29T12:58:01.828Z,12.20
2018-05-29T12:59:02.058Z,12.20
2018-05-29T13:00:02.466Z,13.10
2018-05-29T13:01:02.463Z,12.30
2018-05-29T13:02:02.980Z,11.90
2018-05-29T13:03:04.525Z,12.40
2018-05-29T13:04:03.276Z,9.70
2018-05-29T13:05:04.624Z,7.40
2018-05-29T13:06:03.112Z,7.60
2018-05-29T13:07:03.293Z,7.20
2018-05-29T13:08:03.481Z,6.10
2018-05-29T13:09:03.660Z,6.70
2018-05-29T13:10:03.843Z,6.50
2018-05-29T13:11:04.041Z,6.10
2018-05-29T13:12:04.232Z,5.40